Time;durP1;ratioP1;P1;durP2;ratioP2;P2;SDS_P1;SDS_P2;PMS_P1;PMS_P2;Temp;Humidity;BMP_temperature;BMP_pressure;BME280_temperature;BME280_humidity;BME280_pressure;Samples;Min_cycle;Max_cycle;Signal;HPM_P1;HPM_P2
2023/05/14 00:02:07;;;;;;;8.87;7.97;;;;;;;;;;6041926;23;20587;-62
2023/05/14 00:04:35;;;;;;;11.90;10.80;;;;;;;;;;6042483;23;20639;-66
2023/05/14 00:07:04;;;;;;;23.30;19.77;;;;;;;;;;6042259;23;20635;-62
2023/05/14 00:09:34;;;;;;;8.47;7.83;;;;;;;;;;6044493;23;20696;-62
2023/05/14 00:12:02;;;;;;;9.45;8.13;;;;;;;;;;6044970;23;20654;-62
2023/05/14 00:14:30;;;;;;;8.83;8.03;;;;;;;;;;6042679;23;20188;-62
2023/05/14 00:17:00;;;;;;;8.50;7.80;;;;;;;;;;6044885;23;20680;-62
2023/05/14 00:19:28;;;;;;;8.93;8.07;;;;;;;;;;6042435;23;20260;-62
2023/05/14 00:21:56;;;;;;;8.87;8.17;;;;;;;;;;6044645;23;20607;-62
2023/05/14 00:24:25;;;;;;;9.10;7.97;;;;;;;;;;6044750;23;20612;-62
2023/05/14 00:26:53;;;;;;;9.45;8.52;;;;;;;;;;6045032;23;20673;-62
2023/05/14 00:29:21;;;;;;;8.80;8.10;;;;;;;;;;6044284;23;20228;-62
2023/05/14 00:31:49;;;;;;;10.10;9.30;;;;;;;;;;6044013;23;20264;-62
2023/05/14 00:34:19;;;;;;;8.30;7.60;;;;;;;;;;6042223;23;20252;-64
2023/05/14 00:36:47;;;;;;;9.50;8.60;;;;;;;;;;6042330;23;20692;-63
2023/05/14 00:39:16;;;;;;;8.68;7.63;;;;;;;;;;6044105;23;20252;-63
2023/05/14 00:41:44;;;;;;;11.15;8.32;;;;;;;;;;6043703;23;20224;-63
2023/05/14 00:44:13;;;;;;;9.68;8.68;;;;;;;;;;6044107;23;20346;-63
2023/05/14 00:46:42;;;;;;;12.90;8.50;;;;;;;;;;6043649;23;20574;-63
2023/05/14 00:49:10;;;;;;;9.77;8.77;;;;;;;;;;6042985;23;20626;-62
2023/05/14 00:51:40;;;;;;;9.27;8.47;;;;;;;;;;6043784;23;20588;-63
2023/05/14 00:54:09;;;;;;;9.60;8.17;;;;;;;;;;6044256;23;20639;-63
2023/05/14 00:56:37;;;;;;;9.25;8.55;;;;;;;;;;6043244;23;20711;-62
2023/05/14 00:59:05;;;;;;;8.87;8.07;;;;;;;;;;6043911;23;20184;-61
2023/05/14 01:01:33;;;;;;;8.80;8.05;;;;;;;;;;6042955;23;20627;-62
2023/05/14 01:04:02;;;;;;;8.90;8.20;;;;;;;;;;6042307;23;20211;-62
2023/05/14 01:06:36;;;;;;;9.50;8.60;;;;;;;;;;6042668;23;21159;-62
2023/05/14 01:09:23;;;;;;;9.65;8.60;;;;;;;;;;6043212;23;20627;-63
2023/05/14 01:11:58;;;;;;;9.48;8.40;;;;;;;;;;6042087;23;20658;-62
2023/05/14 01:14:29;;;;;;;9.90;8.03;;;;;;;;;;6042731;23;20244;-62
2023/05/14 01:17:00;;;;;;;8.60;7.90;;;;;;;;;;6041999;23;20689;-61
2023/05/14 01:19:33;;;;;;;8.63;7.93;;;;;;;;;;6042011;23;21123;-62
2023/05/14 01:22:02;;;;;;;9.20;8.40;;;;;;;;;;6042956;23;20240;-62
2023/05/14 01:24:31;;;;;;;10.30;8.63;;;;;;;;;;6040731;23;20180;-61
2023/05/14 01:27:02;;;;;;;8.95;8.15;;;;;;;;;;6042469;23;20255;-63
2023/05/14 01:29:31;;;;;;;8.68;7.72;;;;;;;;;;6041293;23;20285;-62
2023/05/14 01:32:01;;;;;;;9.63;8.17;;;;;;;;;;6041040;23;20665;-62
2023/05/14 01:34:31;;;;;;;8.98;8.27;;;;;;;;;;6040517;23;20650;-61
2023/05/14 01:37:00;;;;;;;9.07;8.17;;;;;;;;;;6042446;23;20256;-61
2023/05/14 01:39:31;;;;;;;11.60;7.83;;;;;;;;;;6042719;23;20956;-62
2023/05/14 01:42:00;;;;;;;8.07;7.40;;;;;;;;;;6040342;23;21144;-63
2023/05/14 01:44:29;;;;;;;8.00;7.40;;;;;;;;;;6041124;23;20647;-62
2023/05/14 01:46:57;;;;;;;11.30;8.20;;;;;;;;;;6041437;23;20244;-62
2023/05/14 01:49:25;;;;;;;8.37;6.90;;;;;;;;;;6042345;23;20680;-62
2023/05/14 01:51:54;;;;;;;8.25;7.25;;;;;;;;;;6042820;23;20664;-63
2023/05/14 01:54:22;;;;;;;8.27;7.57;;;;;;;;;;6043086;23;20255;-62
2023/05/14 01:56:52;;;;;;;9.30;7.10;;;;;;;;;;6042361;23;20704;-62
2023/05/14 01:59:20;;;;;;;8.33;7.63;;;;;;;;;;6042106;23;20772;-63
2023/05/14 02:01:49;;;;;;;7.45;6.85;;;;;;;;;;6041981;23;20653;-62
2023/05/14 02:04:18;;;;;;;7.90;6.90;;;;;;;;;;6040389;23;20228;-63
2023/05/14 02:06:46;;;;;;;9.27;8.47;;;;;;;;;;6042009;23;20185;-64
2023/05/14 02:09:14;;;;;;;7.30;6.70;;;;;;;;;;6041519;23;20672;-62
2023/05/14 02:11:42;;;;;;;8.30;7.70;;;;;;;;;;6041228;23;20236;-62
2023/05/14 02:14:14;;;;;;;7.10;6.55;;;;;;;;;;6040831;23;20559;-62
2023/05/14 02:16:42;;;;;;;8.33;7.57;;;;;;;;;;6042436;23;20547;-63
2023/05/14 02:19:10;;;;;;;8.20;7.38;;;;;;;;;;6039758;23;20668;-62
2023/05/14 02:21:38;;;;;;;8.07;7.37;;;;;;;;;;6014465;23;20253;-63
2023/05/14 02:24:06;;;;;;;9.45;8.55;;;;;;;;;;6012425;23;20655;-63
2023/05/14 02:26:35;;;;;;;7.43;6.93;;;;;;;;;;6014145;23;20252;-62
2023/05/14 02:29:03;;;;;;;8.13;7.32;;;;;;;;;;6013560;23;21000;-62
2023/05/14 02:31:33;;;;;;;8.10;7.50;;;;;;;;;;6013688;23;20256;-63
2023/05/14 02:34:01;;;;;;;7.83;7.23;;;;;;;;;;6013644;23;20256;-63
2023/05/14 02:36:30;;;;;;;11.48;7.13;;;;;;;;;;6013664;23;20692;-64
2023/05/14 02:38:59;;;;;;;19.23;8.18;;;;;;;;;;6013269;23;20201;-62
2023/05/14 02:41:28;;;;;;;7.68;7.07;;;;;;;;;;6013310;23;20265;-62
2023/05/14 02:43:56;;;;;;;9.03;7.13;;;;;;;;;;6013598;23;20567;-62
2023/05/14 02:46:24;;;;;;;8.18;7.53;;;;;;;;;;5988759;23;20661;-62
2023/05/14 02:48:54;;;;;;;7.95;7.25;;;;;;;;;;6012949;23;20252;-63
2023/05/14 02:51:22;;;;;;;8.50;7.80;;;;;;;;;;6013255;23;20229;-64
2023/05/14 02:53:50;;;;;;;8.77;8.07;;;;;;;;;;6012866;23;20265;-64
2023/05/14 02:56:18;;;;;;;9.57;7.68;;;;;;;;;;6013445;23;20252;-62
2023/05/14 02:58:46;;;;;;;8.98;8.07;;;;;;;;;;6014115;23;20605;-65
2023/05/14 03:01:17;;;;;;;9.20;8.40;;;;;;;;;;5989826;23;20231;-64
2023/05/14 03:03:45;;;;;;;8.82;7.90;;;;;;;;;;6013816;23;20265;-63
2023/05/14 03:06:15;;;;;;;8.60;7.93;;;;;;;;;;6014199;23;20248;-62
2023/05/14 03:08:43;;;;;;;9.18;8.27;;;;;;;;;;6014541;23;20538;-62
2023/05/14 03:11:11;;;;;;;15.95;8.88;;;;;;;;;;5990131;23;20269;-62
2023/05/14 03:13:40;;;;;;;9.23;8.53;;;;;;;;;;6014234;23;20547;-63
2023/05/14 03:16:08;;;;;;;9.32;8.43;;;;;;;;;;6014563;23;20602;-63
2023/05/14 03:18:38;;;;;;;10.20;9.30;;;;;;;;;;6013758;23;20321;-63
2023/05/14 03:21:07;;;;;;;14.10;9.30;;;;;;;;;;6037220;23;20279;-65
2023/05/14 03:23:37;;;;;;;9.95;8.75;;;;;;;;;;6042647;23;20256;-66
2023/05/14 03:26:05;;;;;;;9.48;8.57;;;;;;;;;;6043452;23;20260;-66
2023/05/14 03:28:34;;;;;;;9.75;8.85;;;;;;;;;;6043131;23;20208;-62
2023/05/14 03:31:02;;;;;;;11.18;9.95;;;;;;;;;;6043683;23;20223;-62
2023/05/14 03:33:31;;;;;;;10.07;9.18;;;;;;;;;;6042231;23;20276;-62
2023/05/14 03:35:59;;;;;;;9.60;8.80;;;;;;;;;;6042225;23;20255;-61
2023/05/14 03:38:28;;;;;;;10.05;9.15;;;;;;;;;;6042187;23;20248;-62
2023/05/14 03:40:58;;;;;;;10.07;9.17;;;;;;;;;;6042598;23;20649;-62
2023/05/14 03:43:26;;;;;;;10.85;9.50;;;;;;;;;;6044225;23;21107;-63
2023/05/14 03:45:54;;;;;;;9.85;8.85;;;;;;;;;;6045135;23;20251;-62
2023/05/14 03:48:24;;;;;;;11.32;9.65;;;;;;;;;;6044048;23;20542;-63
2023/05/14 03:50:52;;;;;;;9.82;8.90;;;;;;;;;;6044050;23;20572;-62
2023/05/14 03:53:20;;;;;;;10.82;10.02;;;;;;;;;;6043878;23;20228;-61
2023/05/14 03:55:49;;;;;;;10.10;9.23;;;;;;;;;;6043788;23;20252;-62
2023/05/14 03:58:19;;;;;;;11.18;9.95;;;;;;;;;;6045616;23;20244;-63
2023/05/14 04:00:47;;;;;;;10.30;9.30;;;;;;;;;;6044086;23;20256;-63
2023/05/14 04:03:15;;;;;;;9.70;8.80;;;;;;;;;;6044148;23;20204;-63
2023/05/14 04:05:44;;;;;;;10.57;9.52;;;;;;;;;;6044136;23;20571;-62
2023/05/14 04:08:12;;;;;;;11.18;9.38;;;;;;;;;;6044806;23;20566;-63
2023/05/14 04:10:40;;;;;;;12.73;9.93;;;;;;;;;;6043635;23;20283;-62
2023/05/14 04:13:08;;;;;;;10.00;9.13;;;;;;;;;;6044168;23;20215;-62
2023/05/14 04:15:41;;;;;;;10.13;8.95;;;;;;;;;;6043077;23;20603;-62
2023/05/14 04:18:09;;;;;;;11.48;9.43;;;;;;;;;;6043888;23;20267;-62
2023/05/14 04:20:37;;;;;;;11.57;9.77;;;;;;;;;;6044555;23;20232;-62
2023/05/14 04:23:06;;;;;;;9.68;8.68;;;;;;;;;;6044115;23;21200;-66
2023/05/14 04:25:34;;;;;;;10.00;9.10;;;;;;;;;;6044544;23;20224;-61
2023/05/14 04:28:02;;;;;;;12.07;10.65;;;;;;;;;;6044493;23;20252;-62
2023/05/14 04:30:30;;;;;;;10.48;9.48;;;;;;;;;;6044966;23;20255;-62
2023/05/14 04:33:00;;;;;;;10.55;9.55;;;;;;;;;;6044051;23;20212;-62
2023/05/14 04:35:28;;;;;;;11.25;10.15;;;;;;;;;;6044447;23;20255;-62
2023/05/14 04:37:56;;;;;;;11.40;10.25;;;;;;;;;;6044920;23;20271;-62
2023/05/14 04:40:24;;;;;;;11.73;10.52;;;;;;;;;;6043622;23;20233;-63
2023/05/14 04:42:52;;;;;;;11.77;10.52;;;;;;;;;;6043519;23;20251;-63
2023/05/14 04:45:21;;;;;;;10.52;9.52;;;;;;;;;;6044149;23;20632;-62
2023/05/14 04:47:50;;;;;;;10.68;9.55;;;;;;;;;;6042505;23;20579;-62
2023/05/14 04:50:19;;;;;;;9.57;8.77;;;;;;;;;;6044707;23;20235;-61
2023/05/14 04:52:47;;;;;;;10.98;10.07;;;;;;;;;;6043457;23;20240;-62
2023/05/14 04:55:16;;;;;;;10.77;9.77;;;;;;;;;;6042562;23;20208;-62
2023/05/14 04:57:44;;;;;;;12.10;10.90;;;;;;;;;;6044001;23;20207;-62
2023/05/14 05:00:13;;;;;;;10.75;9.75;;;;;;;;;;6043152;23;20312;-62
2023/05/14 05:02:41;;;;;;;13.55;10.60;;;;;;;;;;6043821;23;20210;-62
2023/05/14 05:05:10;;;;;;;12.10;11.00;;;;;;;;;;6041943;23;20233;-62
2023/05/14 05:07:39;;;;;;;10.52;9.52;;;;;;;;;;6044002;23;20212;-62
2023/05/14 05:10:08;;;;;;;12.98;11.57;;;;;;;;;;6042911;23;20216;-63
2023/05/14 05:12:37;;;;;;;10.80;9.73;;;;;;;;;;6042860;23;20211;-62
2023/05/14 05:15:05;;;;;;;11.95;10.85;;;;;;;;;;6044441;23;20216;-62
2023/05/14 05:17:34;;;;;;;11.07;10.17;;;;;;;;;;6044883;23;20567;-62
2023/05/14 05:20:03;;;;;;;16.67;10.30;;;;;;;;;;6043318;23;20671;-62
2023/05/14 05:22:32;;;;;;;12.40;9.43;;;;;;;;;;6042774;23;20613;-62
2023/05/14 05:25:05;;;;;;;11.20;10.20;;;;;;;;;;6044002;23;20666;-62
2023/05/14 05:27:33;;;;;;;12.73;11.47;;;;;;;;;;6044586;23;20229;-61
2023/05/14 05:30:02;;;;;;;11.38;10.02;;;;;;;;;;6043978;23;20998;-61
2023/05/14 05:32:32;;;;;;;13.40;9.68;;;;;;;;;;6044325;23;20236;-63
2023/05/14 05:35:00;;;;;;;11.40;10.40;;;;;;;;;;6041488;23;20255;-61
2023/05/14 05:37:28;;;;;;;10.23;9.17;;;;;;;;;;6041148;23;20962;-63
2023/05/14 05:39:56;;;;;;;10.60;9.60;;;;;;;;;;6040812;23;21017;-61
2023/05/14 05:42:26;;;;;;;10.10;9.10;;;;;;;;;;6040999;23;20655;-62
2023/05/14 05:44:55;;;;;;;10.27;9.47;;;;;;;;;;6039254;23;20664;-62
2023/05/14 05:47:23;;;;;;;11.40;8.80;;;;;;;;;;6039386;23;20642;-62
2023/05/14 05:49:52;;;;;;;9.63;8.83;;;;;;;;;;6040576;23;20671;-62
2023/05/14 05:52:21;;;;;;;9.47;8.67;;;;;;;;;;6039792;23;20623;-62
2023/05/14 05:54:49;;;;;;;10.23;9.07;;;;;;;;;;6041880;23;20964;-61
2023/05/14 05:57:17;;;;;;;10.27;9.47;;;;;;;;;;6041844;23;20579;-61
2023/05/14 05:59:47;;;;;;;9.87;8.87;;;;;;;;;;6041325;23;20699;-64
2023/05/14 06:02:15;;;;;;;10.47;9.37;;;;;;;;;;6041436;23;20599;-62
2023/05/14 06:04:43;;;;;;;11.37;9.20;;;;;;;;;;6041445;23;20676;-62
2023/05/14 06:07:11;;;;;;;9.10;8.20;;;;;;;;;;6043045;23;20686;-62
2023/05/14 06:09:40;;;;;;;15.23;10.43;;;;;;;;;;6041283;23;20703;-61
2023/05/14 06:12:08;;;;;;;10.87;9.03;;;;;;;;;;6041315;23;20613;-61
2023/05/14 06:14:36;;;;;;;10.70;9.70;;;;;;;;;;6041531;23;20660;-63
2023/05/14 06:17:06;;;;;;;11.17;9.27;;;;;;;;;;6042289;23;20985;-62
2023/05/14 06:19:34;;;;;;;9.30;8.50;;;;;;;;;;6040322;23;20709;-62
2023/05/14 06:22:03;;;;;;;9.90;9.00;;;;;;;;;;6041986;23;20628;-62
2023/05/14 06:24:31;;;;;;;9.37;8.57;;;;;;;;;;6043795;23;20637;-61
2023/05/14 06:27:00;;;;;;;10.43;7.83;;;;;;;;;;6043214;23;20641;-61
2023/05/14 06:29:28;;;;;;;9.13;8.37;;;;;;;;;;6043959;23;20611;-61
2023/05/14 06:31:57;;;;;;;9.20;8.40;;;;;;;;;;6045531;23;20627;-63
2023/05/14 06:34:27;;;;;;;9.20;8.47;;;;;;;;;;6044125;23;21086;-65
2023/05/14 06:36:56;;;;;;;9.60;8.57;;;;;;;;;;6044285;23;20675;-61
2023/05/14 06:39:24;;;;;;;10.43;8.67;;;;;;;;;;6042383;23;20692;-61
2023/05/14 06:41:52;;;;;;;8.67;8.07;;;;;;;;;;6044318;23;20612;-61
2023/05/14 06:44:23;;;;;;;10.80;8.70;;;;;;;;;;6042295;23;20573;-61
2023/05/14 06:46:51;;;;;;;9.83;8.53;;;;;;;;;;6042334;23;20583;-61
2023/05/14 06:49:20;;;;;;;14.70;7.70;;;;;;;;;;6042021;23;20619;-62
2023/05/14 06:51:49;;;;;;;8.80;8.10;;;;;;;;;;6041071;23;21150;-62
2023/05/14 06:54:19;;;;;;;9.30;8.50;;;;;;;;;;6042504;23;20644;-63
2023/05/14 06:56:47;;;;;;;10.93;8.37;;;;;;;;;;6041401;23;20672;-62
2023/05/14 06:59:15;;;;;;;6.87;6.27;;;;;;;;;;6042826;23;21219;-61
2023/05/14 07:01:44;;;;;;;7.93;7.33;;;;;;;;;;6041368;23;20679;-63
2023/05/14 07:04:12;;;;;;;9.13;8.00;;;;;;;;;;6042061;23;20668;-61
2023/05/14 07:06:40;;;;;;;10.10;7.37;;;;;;;;;;6041082;23;20737;-62
2023/05/14 07:09:10;;;;;;;8.40;7.60;;;;;;;;;;6042322;23;20591;-63
2023/05/14 07:11:38;;;;;;;7.67;6.97;;;;;;;;;;6041256;23;20605;-61
2023/05/14 07:14:07;;;;;;;8.40;7.53;;;;;;;;;;6043237;23;20591;-63
2023/05/14 07:16:35;;;;;;;6.90;6.30;;;;;;;;;;6041043;23;20624;-62
2023/05/14 07:19:03;;;;;;;7.30;6.70;;;;;;;;;;6041238;23;20684;-62
2023/05/14 07:21:32;;;;;;;7.10;6.37;;;;;;;;;;6040753;23;20677;-62
2023/05/14 07:24:00;;;;;;;7.70;7.00;;;;;;;;;;6040087;23;21157;-61
2023/05/14 07:26:30;;;;;;;7.83;6.83;;;;;;;;;;6040745;23;20982;-62
2023/05/14 07:28:58;;;;;;;7.53;6.80;;;;;;;;;;6041749;23;20668;-63
2023/05/14 07:31:26;;;;;;;7.53;6.90;;;;;;;;;;6041015;23;20656;-63
2023/05/14 07:33:54;;;;;;;7.57;6.90;;;;;;;;;;6040263;23;20665;-63
2023/05/14 07:36:23;;;;;;;7.40;6.63;;;;;;;;;;6038022;23;20656;-63
2023/05/14 07:38:51;;;;;;;7.20;6.50;;;;;;;;;;6040868;23;21159;-62
2023/05/14 07:41:19;;;;;;;6.57;6.00;;;;;;;;;;6041398;23;21029;-63
2023/05/14 07:43:49;;;;;;;7.17;6.67;;;;;;;;;;6040449;23;20640;-62
2023/05/14 07:46:17;;;;;;;6.70;6.20;;;;;;;;;;6041358;23;20701;-62
2023/05/14 07:48:45;;;;;;;7.83;7.10;;;;;;;;;;6041719;23;20664;-62
2023/05/14 07:51:14;;;;;;;5.90;5.50;;;;;;;;;;6040134;23;20654;-62
2023/05/14 07:53:42;;;;;;;5.87;5.47;;;;;;;;;;6040218;23;20972;-62
2023/05/14 07:56:10;;;;;;;6.77;6.27;;;;;;;;;;6039907;23;20648;-62
2023/05/14 07:58:38;;;;;;;7.37;6.77;;;;;;;;;;6041089;23;20676;-62
2023/05/14 08:01:08;;;;;;;6.10;5.70;;;;;;;;;;6039336;23;20699;-62
2023/05/14 08:03:36;;;;;;;6.63;6.10;;;;;;;;;;6039566;23;20582;-63
2023/05/14 08:06:05;;;;;;;7.00;6.40;;;;;;;;;;6037508;23;20693;-62
2023/05/14 08:08:33;;;;;;;7.40;5.93;;;;;;;;;;6039525;23;20674;-62
2023/05/14 08:11:01;;;;;;;6.10;5.67;;;;;;;;;;6035896;23;21212;-62
2023/05/14 08:13:29;;;;;;;8.47;7.77;;;;;;;;;;6039264;23;20654;-61
2023/05/14 08:15:58;;;;;;;5.77;5.30;;;;;;;;;;6039027;23;20676;-63
2023/05/14 08:18:27;;;;;;;7.30;6.70;;;;;;;;;;6039873;23;20675;-66
2023/05/14 08:20:55;;;;;;;8.97;7.87;;;;;;;;;;6038666;23;20752;-62
2023/05/14 08:23:24;;;;;;;7.77;6.90;;;;;;;;;;6039224;23;20666;-62
2023/05/14 08:25:52;;;;;;;6.17;5.63;;;;;;;;;;6039433;23;20669;-62
2023/05/14 08:28:20;;;;;;;6.63;6.20;;;;;;;;;;6039762;23;20660;-62
2023/05/14 08:30:48;;;;;;;6.63;6.13;;;;;;;;;;6041474;23;21217;-61
2023/05/14 08:33:17;;;;;;;6.53;6.03;;;;;;;;;;6041786;23;20665;-62
2023/05/14 08:35:46;;;;;;;6.43;5.83;;;;;;;;;;6041501;23;21043;-63
2023/05/14 08:38:15;;;;;;;7.03;6.50;;;;;;;;;;6041191;23;20950;-62
2023/05/14 08:40:43;;;;;;;7.13;6.53;;;;;;;;;;6042976;23;20696;-62
2023/05/14 08:43:12;;;;;;;7.20;6.50;;;;;;;;;;6040818;23;20652;-61
2023/05/14 08:45:41;;;;;;;6.50;6.00;;;;;;;;;;6042465;23;20636;-63
2023/05/14 08:48:12;;;;;;;7.60;6.90;;;;;;;;;;6040555;23;20664;-63
2023/05/14 08:50:40;;;;;;;6.73;5.93;;;;;;;;;;6042439;23;20633;-62
2023/05/14 08:53:10;;;;;;;10.93;5.97;;;;;;;;;;6042648;23;20664;-64
2023/05/14 08:55:42;;;;;;;6.30;5.90;;;;;;;;;;6041215;23;20620;-62
2023/05/14 08:58:10;;;;;;;7.30;6.70;;;;;;;;;;6040027;23;20668;-62
2023/05/14 09:00:39;;;;;;;6.53;5.93;;;;;;;;;;6040154;23;20716;-63
2023/05/14 09:03:07;;;;;;;6.47;5.97;;;;;;;;;;6038487;23;21036;-62
2023/05/14 09:05:35;;;;;;;6.10;5.70;;;;;;;;;;6042086;23;21265;-62
2023/05/14 09:08:03;;;;;;;6.90;6.47;;;;;;;;;;6041912;23;20663;-62
2023/05/14 09:10:33;;;;;;;6.90;6.30;;;;;;;;;;6041340;23;20672;-62
2023/05/14 09:13:01;;;;;;;8.00;7.40;;;;;;;;;;6041283;23;20985;-62
2023/05/14 09:15:30;;;;;;;8.00;7.23;;;;;;;;;;6017937;23;20656;-63
2023/05/14 09:17:58;;;;;;;6.10;5.70;;;;;;;;;;6040652;23;20672;-62
2023/05/14 09:20:27;;;;;;;6.83;6.37;;;;;;;;;;6040055;23;20723;-63
2023/05/14 09:22:55;;;;;;;7.27;5.80;;;;;;;;;;6041254;23;20661;-62
2023/05/14 09:25:27;;;;;;;6.80;6.33;;;;;;;;;;6041425;23;20680;-62
2023/05/14 09:27:57;;;;;;;7.30;6.70;;;;;;;;;;6041056;23;21216;-62
2023/05/14 09:30:26;;;;;;;8.00;7.27;;;;;;;;;;6041040;23;20652;-64
2023/05/14 09:32:55;;;;;;;6.97;6.47;;;;;;;;;;6041097;23;20684;-62
2023/05/14 09:35:24;;;;;;;7.37;6.87;;;;;;;;;;6040709;23;20668;-62
2023/05/14 09:37:53;;;;;;;7.37;6.87;;;;;;;;;;6041082;23;20672;-62
2023/05/14 09:40:22;;;;;;;8.10;7.50;;;;;;;;;;6041172;23;20764;-61
2023/05/14 09:42:51;;;;;;;7.80;7.00;;;;;;;;;;6041536;23;20609;-62
2023/05/14 09:45:20;;;;;;;7.00;6.50;;;;;;;;;;6040841;23;20781;-61
2023/05/14 09:47:49;;;;;;;5.90;5.50;;;;;;;;;;6040556;23;21008;-61
2023/05/14 09:50:17;;;;;;;8.33;6.53;;;;;;;;;;6041750;23;20577;-62
2023/05/14 09:52:45;;;;;;;7.10;6.50;;;;;;;;;;6040266;23;21016;-63
2023/05/14 09:55:14;;;;;;;7.03;6.53;;;;;;;;;;6040199;23;20601;-61
2023/05/14 09:57:43;;;;;;;6.37;5.97;;;;;;;;;;6038732;23;20664;-61
2023/05/14 10:00:12;;;;;;;6.80;6.33;;;;;;;;;;6041357;23;20664;-62
2023/05/14 10:02:43;;;;;;;7.07;6.63;;;;;;;;;;6039341;23;20653;-63
2023/05/14 10:05:14;;;;;;;8.00;7.30;;;;;;;;;;6040257;23;20640;-62
2023/05/14 10:07:45;;;;;;;7.30;6.80;;;;;;;;;;6041877;23;20605;-63
2023/05/14 10:10:16;;;;;;;7.47;6.97;;;;;;;;;;6041254;23;20715;-61
2023/05/14 10:12:46;;;;;;;6.80;6.20;;;;;;;;;;6041458;23;20624;-62
2023/05/14 10:15:17;;;;;;;7.60;7.00;;;;;;;;;;6041766;23;20697;-62
2023/05/14 10:17:49;;;;;;;6.73;6.33;;;;;;;;;;6041625;23;20621;-63
2023/05/14 10:20:18;;;;;;;6.67;6.07;;;;;;;;;;6040591;23;20713;-62
2023/05/14 10:22:46;;;;;;;7.03;6.50;;;;;;;;;;6039674;23;20668;-63
2023/05/14 10:25:15;;;;;;;7.27;6.70;;;;;;;;;;6040591;23;20669;-62
2023/05/14 10:27:44;;;;;;;7.00;6.60;;;;;;;;;;6040654;23;20694;-62
2023/05/14 10:30:12;;;;;;;7.27;6.83;;;;;;;;;;6041178;23;20661;-62
2023/05/14 10:32:42;;;;;;;8.10;7.40;;;;;;;;;;6040330;23;20660;-63
2023/05/14 10:35:21;;;;;;;7.80;7.30;;;;;;;;;;6040630;23;20981;-62
2023/05/14 10:37:51;;;;;;;7.30;6.87;;;;;;;;;;6040832;23;20945;-62
2023/05/14 10:40:21;;;;;;;7.40;6.80;;;;;;;;;;6041041;23;20621;-62
2023/05/14 10:42:49;;;;;;;7.80;7.30;;;;;;;;;;6039747;23;20648;-62
2023/05/14 10:45:17;;;;;;;7.97;7.47;;;;;;;;;;6040436;23;20730;-62
2023/05/14 10:47:46;;;;;;;9.33;7.73;;;;;;;;;;6038436;23;20676;-63
2023/05/14 10:50:16;;;;;;;7.87;7.47;;;;;;;;;;6039429;23;20660;-61
2023/05/14 10:52:46;;;;;;;8.77;8.17;;;;;;;;;;6038523;23;20653;-62
2023/05/14 10:55:15;;;;;;;8.60;8.07;;;;;;;;;;6039486;23;20669;-62
2023/05/14 10:57:44;;;;;;;8.63;8.03;;;;;;;;;;6039525;23;20684;-61
2023/05/14 11:00:13;;;;;;;8.10;7.60;;;;;;;;;;6039235;23;20672;-61
2023/05/14 11:02:42;;;;;;;7.80;7.20;;;;;;;;;;6037794;23;21022;-61
2023/05/14 11:05:12;;;;;;;7.90;7.40;;;;;;;;;;6038362;23;20643;-62
2023/05/14 11:07:41;;;;;;;8.43;7.93;;;;;;;;;;6040390;23;20624;-61
2023/05/14 11:10:12;;;;;;;8.10;7.30;;;;;;;;;;6038725;23;21220;-61
2023/05/14 11:12:40;;;;;;;8.17;7.57;;;;;;;;;;6038925;23;21149;-61
2023/05/14 11:15:10;;;;;;;7.77;7.17;;;;;;;;;;6039647;23;20668;-61
2023/05/14 11:17:39;;;;;;;7.93;7.33;;;;;;;;;;6038103;23;20664;-61
2023/05/14 11:20:07;;;;;;;7.80;7.40;;;;;;;;;;6039003;23;21015;-62
2023/05/14 11:22:36;;;;;;;7.30;6.90;;;;;;;;;;6039028;23;20705;-65
2023/05/14 11:25:06;;;;;;;7.53;7.07;;;;;;;;;;6040021;23;20581;-65
2023/05/14 11:27:37;;;;;;;6.70;6.40;;;;;;;;;;6039519;23;20676;-62
2023/05/14 11:30:06;;;;;;;8.40;7.90;;;;;;;;;;6038303;23;20620;-62
2023/05/14 11:32:35;;;;;;;7.83;7.40;;;;;;;;;;6038646;23;20664;-62
2023/05/14 11:35:04;;;;;;;8.40;7.80;;;;;;;;;;6038295;23;21213;-62
2023/05/14 11:37:33;;;;;;;9.13;8.43;;;;;;;;;;6038129;23;20672;-63
2023/05/14 11:40:01;;;;;;;7.67;7.17;;;;;;;;;;6040338;23;20628;-61
2023/05/14 11:42:30;;;;;;;7.70;7.30;;;;;;;;;;6039267;23;21042;-62
2023/05/14 11:45:00;;;;;;;7.00;6.70;;;;;;;;;;6040224;23;20668;-61
2023/05/14 11:47:30;;;;;;;8.13;7.57;;;;;;;;;;6039516;23;20633;-62
2023/05/14 11:50:00;;;;;;;8.50;8.00;;;;;;;;;;6039867;23;20655;-62
2023/05/14 11:52:28;;;;;;;8.10;7.60;;;;;;;;;;6039332;23;20668;-64
2023/05/14 11:54:56;;;;;;;7.90;7.40;;;;;;;;;;6039841;23;20675;-61
2023/05/14 11:57:24;;;;;;;8.90;8.30;;;;;;;;;;6039125;23;20629;-61
2023/05/14 11:59:57;;;;;;;7.97;7.57;;;;;;;;;;6038302;23;20673;-61
2023/05/14 12:02:28;;;;;;;7.77;7.47;;;;;;;;;;6037152;23;20989;-62
2023/05/14 12:04:56;;;;;;;9.57;8.87;;;;;;;;;;6039493;23;20705;-62
2023/05/14 12:07:25;;;;;;;9.47;9.07;;;;;;;;;;6040482;23;20652;-62
2023/05/14 12:09:53;;;;;;;8.90;8.50;;;;;;;;;;6039845;23;20704;-63
2023/05/14 12:12:22;;;;;;;9.57;9.07;;;;;;;;;;6040492;23;20688;-61
2023/05/14 12:14:51;;;;;;;9.10;8.50;;;;;;;;;;6040195;23;20668;-61
2023/05/14 12:17:20;;;;;;;9.50;9.00;;;;;;;;;;6041166;23;20709;-62
2023/05/14 12:19:50;;;;;;;9.40;8.80;;;;;;;;;;6040299;23;20695;-62
2023/05/14 12:22:19;;;;;;;8.83;8.53;;;;;;;;;;6039980;23;20687;-62
2023/05/14 12:24:53;;;;;;;9.40;9.00;;;;;;;;;;6039260;23;20724;-63
2023/05/14 12:27:23;;;;;;;8.57;8.27;;;;;;;;;;6040408;23;20656;-60
2023/05/14 12:29:52;;;;;;;9.67;9.17;;;;;;;;;;6040841;23;20676;-63
2023/05/14 12:32:20;;;;;;;9.20;8.80;;;;;;;;;;6041597;23;20656;-62
2023/05/14 12:34:50;;;;;;;8.77;8.47;;;;;;;;;;6041448;23;20668;-62
2023/05/14 12:37:18;;;;;;;8.83;8.53;;;;;;;;;;6042087;23;20652;-62
2023/05/14 12:39:46;;;;;;;9.10;8.70;;;;;;;;;;6040885;23;20659;-63
2023/05/14 12:42:15;;;;;;;10.60;9.87;;;;;;;;;;6040886;23;21332;-62
2023/05/14 12:44:43;;;;;;;9.10;8.70;;;;;;;;;;6039867;23;20712;-61
2023/05/14 12:47:11;;;;;;;9.60;8.97;;;;;;;;;;6041143;23;20668;-61
2023/05/14 12:49:40;;;;;;;9.97;9.40;;;;;;;;;;6039452;23;20660;-63
2023/05/14 12:52:09;;;;;;;10.23;9.30;;;;;;;;;;6041209;23;20724;-63
2023/05/14 12:54:39;;;;;;;9.40;8.90;;;;;;;;;;6040253;23;20692;-63
2023/05/14 12:57:07;;;;;;;9.33;8.83;;;;;;;;;;6040881;23;20664;-63
2023/05/14 12:59:35;;;;;;;9.00;8.50;;;;;;;;;;6040993;23;20668;-66
2023/05/14 13:02:04;;;;;;;9.07;8.67;;;;;;;;;;6039954;23;20672;-63
2023/05/14 13:04:32;;;;;;;9.93;9.23;;;;;;;;;;6041280;23;20969;-63
2023/05/14 13:07:00;;;;;;;10.47;9.97;;;;;;;;;;6040273;23;20577;-63
2023/05/14 13:09:30;;;;;;;9.37;8.97;;;;;;;;;;6040776;23;20696;-62
2023/05/14 13:11:58;;;;;;;9.10;8.70;;;;;;;;;;6041652;23;20696;-62
2023/05/14 13:14:26;;;;;;;9.80;9.30;;;;;;;;;;6040842;23;20671;-62
2023/05/14 13:16:54;;;;;;;9.80;9.10;;;;;;;;;;6040496;23;21180;-62
2023/05/14 13:19:23;;;;;;;10.17;8.77;;;;;;;;;;6040617;23;20641;-63
2023/05/14 13:21:51;;;;;;;9.47;8.97;;;;;;;;;;6041440;23;20625;-62
2023/05/14 13:24:19;;;;;;;9.90;9.50;;;;;;;;;;6039193;23;21008;-63
2023/05/14 13:26:49;;;;;;;9.10;8.70;;;;;;;;;;6040864;23;20585;-62
2023/05/14 13:29:17;;;;;;;9.67;9.17;;;;;;;;;;6040244;23;20669;-63
2023/05/14 13:31:46;;;;;;;9.70;9.20;;;;;;;;;;6040653;23;20676;-65
2023/05/14 13:34:14;;;;;;;9.83;9.23;;;;;;;;;;6040282;23;20640;-60
2023/05/14 13:36:42;;;;;;;9.30;8.60;;;;;;;;;;6039011;23;20723;-64
2023/05/14 13:39:10;;;;;;;9.73;9.33;;;;;;;;;;6040298;23;21033;-62
2023/05/14 13:41:39;;;;;;;9.10;8.60;;;;;;;;;;6039714;23;20664;-63
2023/05/14 13:44:09;;;;;;;9.30;8.90;;;;;;;;;;6038912;23;20973;-62
2023/05/14 13:46:38;;;;;;;9.17;8.67;;;;;;;;;;6039391;23;21208;-63
2023/05/14 13:49:06;;;;;;;9.17;8.77;;;;;;;;;;6040582;23;20649;-64
2023/05/14 13:51:34;;;;;;;8.90;8.60;;;;;;;;;;6038688;23;20664;-63
2023/05/14 13:54:03;;;;;;;9.00;8.70;;;;;;;;;;6040738;23;20601;-62
2023/05/14 13:56:31;;;;;;;9.47;9.07;;;;;;;;;;6039717;23;20577;-65
2023/05/14 13:59:00;;;;;;;9.10;8.70;;;;;;;;;;6039713;23;20993;-62
2023/05/14 14:01:30;;;;;;;9.33;8.77;;;;;;;;;;6038759;23;20672;-63
2023/05/14 14:03:58;;;;;;;9.27;8.57;;;;;;;;;;6039669;23;20636;-61
2023/05/14 14:06:27;;;;;;;9.90;9.30;;;;;;;;;;6039773;23;20690;-63
2023/05/14 14:08:55;;;;;;;9.13;8.77;;;;;;;;;;6039042;23;20712;-63
2023/05/14 14:11:24;;;;;;;9.20;8.80;;;;;;;;;;6039325;23;20660;-63
2023/05/14 14:13:52;;;;;;;10.10;9.40;;;;;;;;;;6039231;23;20617;-64
2023/05/14 14:16:21;;;;;;;8.90;8.60;;;;;;;;;;6038885;23;20711;-65
2023/05/14 14:18:50;;;;;;;9.33;8.93;;;;;;;;;;6039216;23;20671;-66
2023/05/14 14:21:19;;;;;;;9.33;8.93;;;;;;;;;;6038595;23;20959;-65
2023/05/14 14:23:48;;;;;;;10.13;9.47;;;;;;;;;;6038075;23;20668;-66
2023/05/14 14:26:16;;;;;;;9.60;9.03;;;;;;;;;;6038420;23;21037;-66
2023/05/14 14:28:44;;;;;;;9.00;8.60;;;;;;;;;;6038417;23;20664;-66
2023/05/14 14:31:12;;;;;;;8.63;8.23;;;;;;;;;;6038460;23;20671;-65
2023/05/14 14:33:40;;;;;;;9.77;9.17;;;;;;;;;;6038091;23;20684;-65
2023/05/14 14:36:11;;;;;;;8.63;8.03;;;;;;;;;;6039494;23;20657;-66
2023/05/14 14:38:39;;;;;;;8.40;8.00;;;;;;;;;;6039523;23;21042;-66
2023/05/14 14:41:08;;;;;;;8.87;8.37;;;;;;;;;;6039137;23;20664;-65
2023/05/14 14:43:39;;;;;;;9.30;8.90;;;;;;;;;;6039431;23;20576;-65
2023/05/14 14:46:08;;;;;;;8.40;8.00;;;;;;;;;;6039019;23;20737;-64
2023/05/14 14:48:37;;;;;;;9.27;8.87;;;;;;;;;;6039344;23;20656;-67